»·PEaware :: JBU727 KPDX-CYVR

JBU727 :: KPDX-CYVR

FLIGHT INFORMATION

Flight Status: Arrived
Operator:
JetBlue Airways
More flights by this operator :: More flights under this callsign
Pilot: Anonymous 5323 (5323)
Aircraft: MCDONNELL-DOUGLAS MD-88
(MD88)
More flights by this aircraft type
Origin: KPDX Portland Intl
United States
Destination: CYVR Vancouver Intl
Canada
More flights between these airports :: More routes between these airports
Route: BTG J1 SEA PAE PAINE4
File this flight plan on PilotEdge
Remarks:
Altitude:
(Current/Filed)
24,000ft
Speed:
(Current/Filed)
450kts
Departed: 08-Dec-15 07:47 PM
Arrived: 08-Dec-15 08:35 PM
Distance/Time
Traveled:
217nm/0:48
Distance/Time
To Go:
Arrived

Flight Plot

Page will automatically refresh every two minutes.


Map Options




Map Legend


Flown Route
Filed Route
Departure Airport
Arrival Airport
Navaid (VOR, NDB)
Fix

Horizontal Profiles

Position Reports

Time Latitude Longitude Heading Altitude Ground
Speed
08-Dec-15 19:32 45.593206 -122.599243 44 35ft 0kts
08-Dec-15 19:33 45.593206 -122.599243 44 35ft 0kts
08-Dec-15 19:34 45.593206 -122.599243 44 35ft 0kts
08-Dec-15 19:35 45.593206 -122.599243 44 35ft 0kts
08-Dec-15 19:36 45.593206 -122.599243 44 35ft 0kts
08-Dec-15 19:37 45.593206 -122.599243 44 35ft 0kts
08-Dec-15 19:38 45.593447 -122.598946 30 35ft 0kts
08-Dec-15 19:39 45.593447 -122.598946 30 35ft 0kts
08-Dec-15 19:40 45.593447 -122.598946 30 35ft 0kts
08-Dec-15 19:41 45.593479 -122.598920 30 35ft 3kts
08-Dec-15 19:42 45.593732 -122.598787 355 35ft 0kts
08-Dec-15 19:43 45.594217 -122.600050 227 35ft 0kts
08-Dec-15 19:44 45.584438 -122.613495 222 117ft 159kts
08-Dec-15 19:45 45.567568 -122.680874 298 2117ft 261kts
08-Dec-15 19:46 45.637857 -122.682032 25 4610ft 299kts
08-Dec-15 19:47 45.709747 -122.618198 31 7056ft 322kts
08-Dec-15 19:48 45.782254 -122.586943 359 9345ft 318kts
08-Dec-15 19:49 45.875655 -122.570989 357 10254ft 383kts
08-Dec-15 19:50 45.968852 -122.555618 356 11913ft 405kts
08-Dec-15 19:51 46.082318 -122.537055 356 14146ft 417kts
08-Dec-15 19:52 46.198837 -122.517912 356 16233ft 428kts
08-Dec-15 19:53 46.318588 -122.498149 355 18193ft 437kts
08-Dec-15 19:54 46.438220 -122.478320 355 19982ft 446kts
08-Dec-15 19:55 46.560786 -122.457913 355 21602ft 454kts
08-Dec-15 19:56 46.687801 -122.436691 355 22632ft 472kts
08-Dec-15 19:57 46.819474 -122.414515 355 23670ft 479kts
08-Dec-15 19:58 46.951863 -122.392170 355 23720ft 482kts
08-Dec-15 19:59 47.083734 -122.369778 355 23728ft 482kts
08-Dec-15 20:00 47.216022 -122.347204 355 23731ft 482kts
08-Dec-15 20:01 47.348678 -122.324453 355 23738ft 482kts
08-Dec-15 20:02 47.480533 -122.306519 350 23741ft 475kts
08-Dec-15 20:03 47.611244 -122.298033 350 23735ft 475kts
08-Dec-15 20:04 47.741731 -122.289457 350 23738ft 475kts
08-Dec-15 20:05 47.872709 -122.280809 350 23746ft 473kts
08-Dec-15 20:06 47.998911 -122.300428 336 23748ft 450kts
08-Dec-15 20:07 48.121270 -122.335951 336 23722ft 450kts
08-Dec-15 20:08 48.240134 -122.370536 337 21260ft 426kts
08-Dec-15 20:09 48.352813 -122.403500 337 18979ft 405kts
08-Dec-15 20:10 48.460399 -122.435098 337 16875ft 383kts
08-Dec-15 20:11 48.561620 -122.464992 337 14996ft 370kts
08-Dec-15 20:12 48.661079 -122.494455 338 13046ft 362kts
08-Dec-15 20:13 48.736197 -122.554481 302 12408ft 263kts
08-Dec-15 20:14 48.785644 -122.638041 300 10541ft 275kts
08-Dec-15 20:15 48.836479 -122.726487 302 8519ft 282kts
08-Dec-15 20:16 48.888265 -122.817019 305 6515ft 288kts
08-Dec-15 20:17 48.939322 -122.906369 305 5958ft 280kts
08-Dec-15 20:18 48.990987 -122.997535 309 4434ft 285kts
08-Dec-15 20:19 49.035519 -123.094872 304 3433ft 277kts
08-Dec-15 20:20 49.077431 -123.193104 303 3261ft 279kts
08-Dec-15 20:21 49.093709 -123.298758 269 2997ft 239kts
08-Dec-15 20:22 49.094026 -123.388460 269 2397ft 200kts
08-Dec-15 20:23 49.095151 -123.450811 286 2297ft 195kts
08-Dec-15 20:24 49.110758 -123.529351 287 2299ft 192kts
08-Dec-15 20:25 49.150775 -123.580050 348 2026ft 189kts
08-Dec-15 20:26 49.195011 -123.545931 43 1997ft 184kts
08-Dec-15 20:27 49.222636 -123.486175 103 2030ft 178kts
08-Dec-15 20:28 49.213768 -123.412375 99 2011ft 176kts
08-Dec-15 20:29 49.205285 -123.338803 98 1745ft 168kts
08-Dec-15 20:30 49.199345 -123.287406 98 1057ft 133kts
08-Dec-15 20:31 49.192658 -123.230094 98 326ft 136kts
08-Dec-15 20:32 49.186922 -123.180296 98 20ft 28kts
08-Dec-15 20:33 49.188756 -123.177866 284 20ft 12kts
08-Dec-15 20:34 49.190137 -123.208248 98 79ft 137kts
08-Dec-15 20:35 49.186814 -123.179232 98 20ft 26kts

Navigation Log

Ident Type
Flight plan parsing failed, navigation log unavailable